createdAt,value
2023-04-06T00:02:05.148Z,1.88
2023-04-06T00:04:32.919Z,1.86
2023-04-06T00:07:00.713Z,1.56
2023-04-06T00:09:28.592Z,1.88
2023-04-06T00:11:56.420Z,1.27
2023-04-06T00:14:24.524Z,1.36
2023-04-06T00:16:52.361Z,1.37
2023-04-06T00:19:20.208Z,1.62
2023-04-06T00:21:48.037Z,1.55
2023-04-06T00:24:15.816Z,1.31
2023-04-06T00:26:43.520Z,1.44
2023-04-06T00:29:11.369Z,1.46
2023-04-06T00:31:39.176Z,1.50
2023-04-06T00:34:07.188Z,1.07
2023-04-06T00:36:34.966Z,1.17
2023-04-06T00:39:02.882Z,1.38
2023-04-06T00:41:30.855Z,1.05
2023-04-06T00:43:58.741Z,1.54
2023-04-06T00:46:26.565Z,1.05
2023-04-06T00:48:54.479Z,1.47
2023-04-06T00:51:22.218Z,1.56
2023-04-06T00:53:50.146Z,1.66
2023-04-06T00:56:17.941Z,1.51
2023-04-06T00:58:52.408Z,1.52
2023-04-06T01:01:20.631Z,1.63
2023-04-06T01:03:51.203Z,1.23
2023-04-06T01:06:20.611Z,1.21
2023-04-06T01:08:57.315Z,1.32
2023-04-06T01:11:27.323Z,1.26
2023-04-06T01:13:55.920Z,1.33
2023-04-06T01:16:37.616Z,1.15
2023-04-06T01:19:15.088Z,0.68
2023-04-06T01:21:47.609Z,0.63
2023-04-06T01:24:15.492Z,0.94
2023-04-06T01:27:09.435Z,1.19
2023-04-06T01:29:57.604Z,1.23
2023-04-06T01:32:48.821Z,0.98
2023-04-06T01:35:21.997Z,1.13
2023-04-06T01:38:04.184Z,1.12
2023-04-06T01:40:35.053Z,1.21
2023-04-06T01:43:03.384Z,1.20
2023-04-06T01:45:37.175Z,1.14
2023-04-06T01:48:14.898Z,1.17
2023-04-06T01:50:43.413Z,1.26
2023-04-06T01:53:14.320Z,1.19
2023-04-06T01:55:43.798Z,1.26
2023-04-06T01:58:20.958Z,1.34
2023-04-06T02:00:48.787Z,0.83
2023-04-06T02:03:17.654Z,1.47
2023-04-06T02:05:46.975Z,1.47
2023-04-06T02:08:33.768Z,1.60
2023-04-06T02:11:01.728Z,1.40
2023-04-06T02:13:34.923Z,1.42
2023-04-06T02:16:03.745Z,1.36
2023-04-06T02:18:31.967Z,1.52
2023-04-06T02:20:59.741Z,1.56
2023-04-06T02:23:27.782Z,1.39
2023-04-06T02:25:55.767Z,1.33
2023-04-06T02:28:23.640Z,1.48
2023-04-06T02:30:51.923Z,1.51
2023-04-06T02:33:21.476Z,1.41
2023-04-06T02:35:49.495Z,1.40
2023-04-06T02:38:17.332Z,1.44
2023-04-06T02:40:46.404Z,1.58
2023-04-06T02:43:20.750Z,1.77
2023-04-06T02:45:50.698Z,1.62
2023-04-06T02:48:19.713Z,1.56
2023-04-06T02:50:47.455Z,1.64
2023-04-06T02:53:15.174Z,1.58
2023-04-06T02:55:43.358Z,1.66
2023-04-06T02:58:11.249Z,1.77
2023-04-06T03:00:46.357Z,1.75
2023-04-06T03:03:14.535Z,1.74
2023-04-06T03:05:43.923Z,2.00
2023-04-06T03:08:12.293Z,1.79
2023-04-06T03:10:45.505Z,1.82
2023-04-06T03:13:14.117Z,1.81
2023-04-06T03:15:54.067Z,1.70
2023-04-06T03:18:24.303Z,1.58
2023-04-06T03:20:55.098Z,1.21
2023-04-06T03:23:27.132Z,1.49
2023-04-06T03:25:59.447Z,1.07
2023-04-06T03:28:27.412Z,1.51
2023-04-06T03:31:01.151Z,1.81
2023-04-06T03:33:44.000Z,1.82
2023-04-06T03:36:18.096Z,1.49
2023-04-06T03:38:46.015Z,1.11
2023-04-06T03:41:15.887Z,1.33
2023-04-06T03:43:50.939Z,1.29
2023-04-06T03:46:19.326Z,1.67
2023-04-06T03:48:51.086Z,1.66
2023-04-06T03:51:21.806Z,1.73
2023-04-06T03:53:49.699Z,1.83
2023-04-06T03:56:17.411Z,1.82
2023-04-06T03:58:46.231Z,1.42
2023-04-06T04:01:14.418Z,1.42
2023-04-06T04:03:42.346Z,1.79
2023-04-06T04:06:10.231Z,1.84
2023-04-06T04:08:37.998Z,1.79
2023-04-06T04:11:05.878Z,2.00
2023-04-06T04:13:33.695Z,1.96
2023-04-06T04:16:05.359Z,1.96
2023-04-06T04:18:33.209Z,1.99
2023-04-06T04:21:01.334Z,2.08
2023-04-06T04:23:29.377Z,2.10
2023-04-06T04:25:57.221Z,2.23
2023-04-06T04:28:24.975Z,2.16
2023-04-06T04:30:54.850Z,1.25
2023-04-06T04:33:23.934Z,1.86
2023-04-06T04:35:53.761Z,1.43
2023-04-06T04:38:24.105Z,1.63
2023-04-06T04:40:54.803Z,1.90
2023-04-06T04:43:23.704Z,1.58
2023-04-06T04:45:51.777Z,1.69
2023-04-06T04:48:38.432Z,1.59
2023-04-06T04:51:08.219Z,1.93
2023-04-06T04:53:56.203Z,2.07
2023-04-06T04:56:29.796Z,2.21
2023-04-06T04:59:06.375Z,1.84
2023-04-06T05:01:51.649Z,1.97
2023-04-06T05:04:25.062Z,2.07
2023-04-06T05:07:05.350Z,2.19
2023-04-06T05:09:33.910Z,2.16
2023-04-06T05:12:02.354Z,1.86
2023-04-06T05:14:34.518Z,1.38
2023-04-06T05:17:05.388Z,1.93
2023-04-06T05:19:33.131Z,1.48
2023-04-06T05:22:02.071Z,1.77
2023-04-06T05:24:32.782Z,1.38
2023-04-06T05:27:01.216Z,1.17
2023-04-06T05:29:30.592Z,1.58
2023-04-06T05:31:58.428Z,1.08
2023-04-06T05:34:27.269Z,1.55
2023-04-06T05:36:55.759Z,1.12
2023-04-06T05:39:26.708Z,1.23
2023-04-06T05:41:56.116Z,1.59
2023-04-06T05:44:34.240Z,1.74
2023-04-06T05:47:14.645Z,1.64
2023-04-06T05:49:45.486Z,1.82
2023-04-06T05:52:20.651Z,1.68
2023-04-06T05:54:50.375Z,1.64
2023-04-06T05:57:18.609Z,1.95
2023-04-06T05:59:46.804Z,1.82
2023-04-06T06:02:16.438Z,2.13
2023-04-06T06:04:47.986Z,2.26
2023-04-06T06:07:17.781Z,2.27
2023-04-06T06:09:59.186Z,2.23
2023-04-06T06:12:38.159Z,2.55
2023-04-06T06:15:07.397Z,2.31
2023-04-06T06:17:40.048Z,2.42
2023-04-06T06:20:08.775Z,2.07
2023-04-06T06:22:36.772Z,2.33
2023-04-06T06:25:04.906Z,1.59
2023-04-06T06:27:32.736Z,2.16
2023-04-06T06:30:00.866Z,2.19
2023-04-06T06:32:32.902Z,2.55
2023-04-06T06:35:01.470Z,1.69
2023-04-06T06:37:31.205Z,2.17
2023-04-06T06:39:59.592Z,1.31
2023-04-06T06:42:27.546Z,1.97
2023-04-06T06:45:11.064Z,2.04
2023-04-06T06:47:38.919Z,1.57
2023-04-06T06:50:07.463Z,2.07
2023-04-06T06:52:35.224Z,2.19
2023-04-06T06:55:03.603Z,2.83
2023-04-06T06:57:31.636Z,3.01
2023-04-06T07:00:00.977Z,3.46
2023-04-06T07:02:30.693Z,3.35
2023-04-06T07:04:58.525Z,2.84
2023-04-06T07:07:26.357Z,3.26
2023-04-06T07:09:54.174Z,3.80
2023-04-06T07:12:22.441Z,3.84
2023-04-06T07:14:50.291Z,3.97
2023-04-06T07:17:18.651Z,3.93
2023-04-06T07:19:46.753Z,4.34
2023-04-06T07:22:14.654Z,4.34
2023-04-06T07:24:42.471Z,4.45
2023-04-06T07:27:10.252Z,4.14
2023-04-06T07:29:38.367Z,4.76
2023-04-06T07:32:06.725Z,4.85
2023-04-06T07:34:35.367Z,5.04
2023-04-06T07:37:04.259Z,5.09
2023-04-06T07:39:33.211Z,5.22
2023-04-06T07:42:02.124Z,5.48
2023-04-06T07:44:30.152Z,5.31
2023-04-06T07:46:58.114Z,5.46
2023-04-06T07:49:27.595Z,5.80
2023-04-06T07:51:56.918Z,5.99
2023-04-06T07:54:24.848Z,5.74
2023-04-06T07:56:52.574Z,6.40
2023-04-06T07:59:20.376Z,6.52
2023-04-06T08:01:48.215Z,6.04
2023-04-06T08:04:16.360Z,5.69
2023-04-06T08:06:44.352Z,5.92
2023-04-06T08:09:12.138Z,6.50
2023-04-06T08:11:39.913Z,5.58
2023-04-06T08:14:08.033Z,6.08
2023-04-06T08:16:36.036Z,6.43
2023-04-06T08:19:03.836Z,6.04
2023-04-06T08:21:31.757Z,5.40
2023-04-06T08:23:59.514Z,5.99
2023-04-06T08:26:27.244Z,5.75
2023-04-06T08:28:55.080Z,5.14
2023-04-06T08:31:22.928Z,6.29
2023-04-06T08:33:50.836Z,5.93
2023-04-06T08:36:23.496Z,6.39
2023-04-06T08:38:51.423Z,6.74
2023-04-06T08:41:19.181Z,7.07
2023-04-06T08:43:51.313Z,6.53
2023-04-06T08:46:19.547Z,6.82
2023-04-06T08:48:49.742Z,6.76
2023-04-06T08:51:17.500Z,6.29
2023-04-06T08:53:45.328Z,6.15
2023-04-06T08:56:13.069Z,6.86
2023-04-06T08:58:41.521Z,6.60
2023-04-06T09:01:11.478Z,7.15
2023-04-06T09:03:43.138Z,7.01
2023-04-06T09:06:11.322Z,6.89
2023-04-06T09:08:40.404Z,7.08
2023-04-06T09:11:08.270Z,6.09
2023-04-06T09:13:50.998Z,6.37
2023-04-06T09:16:19.413Z,6.54
2023-04-06T09:18:47.488Z,5.74
2023-04-06T09:21:17.944Z,6.48
2023-04-06T09:23:45.807Z,6.16
2023-04-06T09:26:15.024Z,6.46
2023-04-06T09:29:02.370Z,5.87
2023-04-06T09:31:33.167Z,5.40
2023-04-06T09:34:01.384Z,6.02
2023-04-06T09:36:36.668Z,5.49
2023-04-06T09:39:05.418Z,5.18
2023-04-06T09:41:36.677Z,5.53
2023-04-06T09:44:07.922Z,6.05
2023-04-06T09:46:54.986Z,5.86
2023-04-06T09:49:31.621Z,6.39
2023-04-06T09:52:08.614Z,6.05
2023-04-06T09:54:36.538Z,6.59
2023-04-06T09:57:37.904Z,7.11
2023-04-06T10:00:10.892Z,6.56
2023-04-06T10:02:57.314Z,7.02
2023-04-06T10:05:47.555Z,6.78
2023-04-06T10:08:15.413Z,6.34
2023-04-06T10:10:43.245Z,6.25
2023-04-06T10:13:12.193Z,6.58
2023-04-06T10:15:41.353Z,6.31
2023-04-06T10:18:09.161Z,6.54
2023-04-06T10:20:43.789Z,6.15
2023-04-06T10:23:33.865Z,6.71
2023-04-06T10:26:02.162Z,6.44
2023-04-06T10:28:35.321Z,5.78
2023-04-06T10:31:06.194Z,6.21
2023-04-06T10:33:34.185Z,6.40
2023-04-06T10:36:14.977Z,6.57
2023-04-06T10:38:43.345Z,6.00
2023-04-06T10:41:12.096Z,6.81
2023-04-06T10:43:41.214Z,7.02
2023-04-06T10:46:10.241Z,6.29
2023-04-06T10:48:39.238Z,6.73
2023-04-06T10:51:17.292Z,6.59
2023-04-06T10:53:49.373Z,6.58
2023-04-06T10:56:18.051Z,6.29
2023-04-06T10:58:47.639Z,6.39
2023-04-06T11:01:22.168Z,6.71
2023-04-06T11:03:51.939Z,6.56
2023-04-06T11:06:20.837Z,6.30
2023-04-06T11:08:48.998Z,6.18
2023-04-06T11:11:19.483Z,6.37
2023-04-06T11:14:00.191Z,6.64
2023-04-06T11:16:30.073Z,7.02
2023-04-06T11:19:01.318Z,6.64
2023-04-06T11:21:40.674Z,6.53
2023-04-06T11:24:12.411Z,6.80
2023-04-06T11:26:44.942Z,6.07
2023-04-06T11:29:13.541Z,6.80
2023-04-06T11:31:42.319Z,6.20
2023-04-06T11:34:13.954Z,6.71
2023-04-06T11:36:42.946Z,6.56
2023-04-06T11:39:11.261Z,6.89
2023-04-06T11:41:39.101Z,6.94
2023-04-06T11:44:07.038Z,7.28
2023-04-06T11:46:34.957Z,7.30
2023-04-06T11:49:03.323Z,7.00
2023-04-06T11:51:31.262Z,7.10
2023-04-06T11:53:59.005Z,7.68
2023-04-06T11:56:28.114Z,6.85
2023-04-06T11:58:59.756Z,6.80
2023-04-06T12:01:27.641Z,7.29
2023-04-06T12:03:55.732Z,6.84
2023-04-06T12:06:24.045Z,6.77
2023-04-06T12:08:51.774Z,7.68
2023-04-06T12:11:21.308Z,7.62
2023-04-06T12:13:49.255Z,7.67
2023-04-06T12:16:17.178Z,6.90
2023-04-06T12:18:45.239Z,6.70
2023-04-06T12:21:13.013Z,7.55
2023-04-06T12:23:41.018Z,6.96
2023-04-06T12:26:13.056Z,7.54
2023-04-06T12:28:41.370Z,7.80
2023-04-06T12:31:15.026Z,7.42
2023-04-06T12:33:42.781Z,7.39
2023-04-06T12:36:14.710Z,7.39
2023-04-06T12:38:42.813Z,7.59
2023-04-06T12:41:10.518Z,7.53
2023-04-06T12:43:38.550Z,7.62
2023-04-06T12:46:06.429Z,7.48
2023-04-06T12:48:34.456Z,8.21
2023-04-06T12:51:03.743Z,8.65
2023-04-06T12:53:31.639Z,7.99
2023-04-06T12:55:59.652Z,8.10
2023-04-06T12:58:28.063Z,8.67
2023-04-06T13:00:57.102Z,8.50
2023-04-06T13:03:24.895Z,8.68
2023-04-06T13:05:52.752Z,8.60
2023-04-06T13:08:21.043Z,8.07
2023-04-06T13:10:49.356Z,8.28
2023-04-06T13:13:17.175Z,8.97
2023-04-06T13:15:46.197Z,8.61
2023-04-06T13:18:14.058Z,8.35
2023-04-06T13:20:42.381Z,8.32
2023-04-06T13:23:10.410Z,8.45
2023-04-06T13:25:38.183Z,8.67
2023-04-06T13:28:06.141Z,8.16
2023-04-06T13:30:34.013Z,8.61
2023-04-06T13:33:01.981Z,8.82
2023-04-06T13:35:29.764Z,8.75
2023-04-06T13:37:57.499Z,8.77
2023-04-06T13:40:25.783Z,9.23
2023-04-06T13:42:53.602Z,8.99
2023-04-06T13:45:21.421Z,9.03
2023-04-06T13:47:49.224Z,8.46
2023-04-06T13:50:17.006Z,7.99
2023-04-06T13:52:44.852Z,8.28
2023-04-06T13:55:12.683Z,8.14
2023-04-06T13:57:40.424Z,7.96
2023-04-06T14:00:09.355Z,8.59
2023-04-06T14:02:37.230Z,8.55
2023-04-06T14:05:05.299Z,8.07
2023-04-06T14:07:33.148Z,8.50
2023-04-06T14:10:01.095Z,8.12
2023-04-06T14:12:28.876Z,8.12
2023-04-06T14:14:56.809Z,8.37
2023-04-06T14:17:24.598Z,8.33
2023-04-06T14:19:52.451Z,8.53
2023-04-06T14:22:20.186Z,8.60
2023-04-06T14:24:47.982Z,8.19
2023-04-06T14:27:15.815Z,8.17
2023-04-06T14:29:43.499Z,8.48
2023-04-06T14:32:11.260Z,7.85
2023-04-06T14:34:39.081Z,8.24
2023-04-06T14:37:07.328Z,8.15
2023-04-06T14:39:35.140Z,7.96
2023-04-06T14:42:02.907Z,8.15
2023-04-06T14:44:30.794Z,8.11
2023-04-06T14:46:58.685Z,7.78
2023-04-06T14:49:26.330Z,8.01
2023-04-06T14:51:54.203Z,8.03
2023-04-06T14:54:21.862Z,8.32
2023-04-06T14:56:49.561Z,8.26
2023-04-06T14:59:17.217Z,7.93
2023-04-06T15:01:45.213Z,8.05
2023-04-06T15:04:13.166Z,7.82
2023-04-06T15:06:41.185Z,7.49
2023-04-06T15:09:08.863Z,7.73
2023-04-06T15:11:36.606Z,7.47
2023-04-06T15:14:04.287Z,7.34
2023-04-06T15:16:33.738Z,7.71
2023-04-06T15:19:01.838Z,7.71
2023-04-06T15:21:29.515Z,7.92
2023-04-06T15:23:57.585Z,7.45
2023-04-06T15:26:25.268Z,7.25
2023-04-06T15:28:52.983Z,7.97
2023-04-06T15:31:36.753Z,8.19
2023-04-06T15:34:08.752Z,7.55
2023-04-06T15:36:36.912Z,7.24
2023-04-06T15:39:04.975Z,7.71
2023-04-06T15:41:32.920Z,7.05
2023-04-06T15:44:00.716Z,7.43
2023-04-06T15:46:28.946Z,7.27
2023-04-06T15:48:57.014Z,7.13
2023-04-06T15:51:24.708Z,6.61
2023-04-06T15:53:52.419Z,7.49
2023-04-06T15:56:20.129Z,6.43
2023-04-06T15:58:48.388Z,6.53
2023-04-06T16:01:17.533Z,6.59
2023-04-06T16:03:45.698Z,6.49
2023-04-06T16:06:13.565Z,6.79
2023-04-06T16:08:41.481Z,6.77
2023-04-06T16:11:09.705Z,6.39
2023-04-06T16:13:37.555Z,6.86
2023-04-06T16:16:05.954Z,7.20
2023-04-06T16:18:36.281Z,6.64
2023-04-06T16:21:05.550Z,6.75
2023-04-06T16:23:34.054Z,6.90
2023-04-06T16:26:01.981Z,6.30
2023-04-06T16:28:29.761Z,6.30
2023-04-06T16:30:58.153Z,6.50
2023-04-06T16:33:25.931Z,6.46
2023-04-06T16:35:53.561Z,7.02
2023-04-06T16:38:23.646Z,7.04
2023-04-06T16:41:01.618Z,6.93
2023-04-06T16:43:29.477Z,7.10
2023-04-06T16:45:57.186Z,7.11
2023-04-06T16:48:24.949Z,7.29
2023-04-06T16:50:52.673Z,6.56
2023-04-06T16:53:20.564Z,6.62
2023-04-06T16:55:48.354Z,6.12
2023-04-06T16:58:17.263Z,6.34
2023-04-06T17:00:45.426Z,6.25
2023-04-06T17:03:13.383Z,6.08
2023-04-06T17:05:41.169Z,5.73
2023-04-06T17:08:09.008Z,5.81
2023-04-06T17:10:46.814Z,5.74
2023-04-06T17:13:19.597Z,6.50
2023-04-06T17:15:47.253Z,6.62
2023-04-06T17:18:14.973Z,5.45
2023-04-06T17:20:43.249Z,5.53
2023-04-06T17:23:11.105Z,5.92
2023-04-06T17:25:38.758Z,4.80
2023-04-06T17:28:06.454Z,5.43
2023-04-06T17:30:34.549Z,5.81
2023-04-06T17:33:02.840Z,5.26
2023-04-06T17:35:30.678Z,4.98
2023-04-06T17:37:58.414Z,5.25
2023-04-06T17:40:26.276Z,5.22
2023-04-06T17:42:54.048Z,4.89
2023-04-06T17:45:21.701Z,5.14
2023-04-06T17:47:49.647Z,4.90
2023-04-06T17:50:17.432Z,4.82
2023-04-06T17:55:21.225Z,4.76
2023-04-06T17:57:49.490Z,5.19
2023-04-06T18:00:19.991Z,5.53
2023-04-06T18:02:47.790Z,5.13
2023-04-06T18:05:15.850Z,5.53
2023-04-06T18:07:43.611Z,6.17
2023-04-06T18:10:11.608Z,6.28
2023-04-06T18:12:39.329Z,6.44
2023-04-06T18:15:07.479Z,6.56
2023-04-06T18:17:35.561Z,6.62
2023-04-06T18:20:03.639Z,5.87
2023-04-06T18:22:34.427Z,6.32
2023-04-06T18:25:03.390Z,5.79
2023-04-06T18:27:31.426Z,5.11
2023-04-06T18:30:01.041Z,5.77
2023-04-06T18:32:30.468Z,5.58
2023-04-06T18:34:58.419Z,5.70
2023-04-06T18:37:26.214Z,5.75
2023-04-06T18:39:54.679Z,5.87
2023-04-06T18:42:22.420Z,5.51
2023-04-06T18:44:50.509Z,5.70
2023-04-06T18:47:18.306Z,5.67
2023-04-06T18:49:46.101Z,5.83
2023-04-06T18:52:13.840Z,6.02
2023-04-06T18:54:41.493Z,5.77
2023-04-06T18:57:10.013Z,5.93
2023-04-06T18:59:37.728Z,6.15
2023-04-06T19:02:05.526Z,5.89
2023-04-06T19:04:33.514Z,5.95
2023-04-06T19:07:01.397Z,5.96
2023-04-06T19:09:29.278Z,6.02
2023-04-06T19:11:57.573Z,5.86
2023-04-06T19:14:25.312Z,6.12
2023-04-06T19:16:53.083Z,6.22
2023-04-06T19:19:21.100Z,6.02
2023-04-06T19:21:48.820Z,6.01
2023-04-06T19:24:16.991Z,6.14
2023-04-06T19:26:44.808Z,6.12
2023-04-06T19:29:12.551Z,6.15
2023-04-06T19:31:40.496Z,6.22
2023-04-06T19:34:08.334Z,5.87
2023-04-06T19:36:36.178Z,6.17
2023-04-06T19:39:03.984Z,6.20
2023-04-06T19:41:31.691Z,6.12
2023-04-06T19:43:59.453Z,5.81
2023-04-06T19:46:27.214Z,5.98
2023-04-06T19:48:55.059Z,6.09
2023-04-06T19:51:22.748Z,6.24
2023-04-06T19:53:50.550Z,6.18
2023-04-06T19:56:18.370Z,6.32
2023-04-06T19:58:46.096Z,6.33
2023-04-06T20:01:13.896Z,6.03
2023-04-06T20:03:42.007Z,5.93
2023-04-06T20:06:09.807Z,5.37
2023-04-06T20:08:37.555Z,5.18
2023-04-06T20:11:07.495Z,5.57
2023-04-06T20:13:36.181Z,5.47
2023-04-06T20:16:04.120Z,5.73
2023-04-06T20:18:32.134Z,4.51
2023-04-06T20:21:00.113Z,4.81
2023-04-06T20:23:28.169Z,5.12
2023-04-06T20:25:55.901Z,4.88
2023-04-06T20:28:24.328Z,4.73
2023-04-06T20:30:52.982Z,5.06
2023-04-06T20:33:20.820Z,4.60
2023-04-06T20:35:58.656Z,4.93
2023-04-06T20:38:33.135Z,4.66
2023-04-06T20:41:02.263Z,3.94
2023-04-06T20:43:30.291Z,4.26
2023-04-06T20:45:58.398Z,4.65
2023-04-06T20:48:26.207Z,4.99
2023-04-06T20:50:53.930Z,4.74
2023-04-06T20:53:22.043Z,4.90
2023-04-06T20:55:49.798Z,5.22
2023-04-06T20:58:20.700Z,5.25
2023-04-06T21:00:49.682Z,5.21
2023-04-06T21:03:18.074Z,5.12
2023-04-06T21:05:53.016Z,5.27
2023-04-06T21:08:20.841Z,5.39
2023-04-06T21:10:48.562Z,5.57
2023-04-06T21:13:16.780Z,5.64
2023-04-06T21:15:44.565Z,5.67
2023-04-06T21:18:12.558Z,5.59
2023-04-06T21:20:40.252Z,5.23
2023-04-06T21:23:08.058Z,5.59
2023-04-06T21:25:38.954Z,5.71
2023-04-06T21:28:06.675Z,5.75
2023-04-06T21:30:37.209Z,5.74
2023-04-06T21:33:05.277Z,5.79
2023-04-06T21:35:39.955Z,5.57
2023-04-06T21:38:08.206Z,5.61
2023-04-06T21:40:36.010Z,5.59
2023-04-06T21:43:03.833Z,5.66
2023-04-06T21:45:32.962Z,5.59
2023-04-06T21:48:00.877Z,5.69
2023-04-06T21:50:28.698Z,5.57
2023-04-06T21:52:56.413Z,5.47
2023-04-06T21:55:24.137Z,5.52
2023-04-06T21:57:51.900Z,5.47
2023-04-06T22:00:19.926Z,5.31
2023-04-06T22:02:47.892Z,5.33
2023-04-06T22:05:16.090Z,5.27
2023-04-06T22:07:47.085Z,5.25
2023-04-06T22:10:14.801Z,5.16
2023-04-06T22:12:42.535Z,5.01
2023-04-06T22:15:12.593Z,5.00
2023-04-06T22:17:40.421Z,4.78
2023-04-06T22:20:08.433Z,4.95
2023-04-06T22:22:36.267Z,4.99
2023-04-06T22:25:04.275Z,4.86
2023-04-06T22:27:32.007Z,4.66
2023-04-06T22:29:59.779Z,4.61
2023-04-06T22:32:27.627Z,4.87
2023-04-06T22:34:55.858Z,4.13
2023-04-06T22:37:23.577Z,4.39
2023-04-06T22:39:51.305Z,4.44
2023-04-06T22:42:19.001Z,3.67
2023-04-06T22:44:46.777Z,4.15
2023-04-06T22:47:14.583Z,4.14
2023-04-06T22:49:42.395Z,3.89
2023-04-06T22:52:10.133Z,3.92
2023-04-06T22:54:37.909Z,3.89
2023-04-06T22:57:05.931Z,3.38
2023-04-06T22:59:33.685Z,3.48
2023-04-06T23:02:01.594Z,2.71
2023-04-06T23:04:29.511Z,2.36
2023-04-06T23:06:57.272Z,2.69
2023-04-06T23:09:25.011Z,3.25
2023-04-06T23:11:52.723Z,3.05
2023-04-06T23:14:20.712Z,3.14
2023-04-06T23:16:48.398Z,2.70
2023-04-06T23:19:16.405Z,3.10
2023-04-06T23:21:44.076Z,2.67
2023-04-06T23:24:11.828Z,2.57
2023-04-06T23:26:39.513Z,2.84
2023-04-06T23:29:07.218Z,2.50
2023-04-06T23:31:34.949Z,2.72
2023-04-06T23:34:02.869Z,2.71
2023-04-06T23:36:31.765Z,3.08
2023-04-06T23:38:59.500Z,3.41
2023-04-06T23:41:27.752Z,3.19
2023-04-06T23:43:56.135Z,2.82
2023-04-06T23:46:23.970Z,2.80
2023-04-06T23:48:51.736Z,2.44
2023-04-06T23:51:19.437Z,2.69
2023-04-06T23:53:47.664Z,2.98
2023-04-06T23:56:15.654Z,2.64
2023-04-06T23:58:43.383Z,2.73
